sensor_id;sensor_type;location;lat;lon;timestamp;P1;durP1;ratioP1;P2;durP2;ratioP2
31112;SDS011;17763;48.730;9.136;2023-03-03T00:01:31;49.47;;;30.05;;
31112;SDS011;17763;48.730;9.136;2023-03-03T00:03:57;57.40;;;31.13;;
31112;SDS011;17763;48.730;9.136;2023-03-03T00:06:23;49.15;;;30.08;;
31112;SDS011;17763;48.730;9.136;2023-03-03T00:08:49;56.75;;;30.98;;
31112;SDS011;17763;48.730;9.136;2023-03-03T00:11:16;53.47;;;29.23;;
31112;SDS011;17763;48.730;9.136;2023-03-03T00:16:31;50.58;;;29.35;;
31112;SDS011;17763;48.730;9.136;2023-03-03T00:19:01;55.17;;;31.60;;
31112;SDS011;17763;48.730;9.136;2023-03-03T00:24:04;47.90;;;29.10;;
31112;SDS011;17763;48.730;9.136;2023-03-03T00:26:37;53.60;;;29.02;;
31112;SDS011;17763;48.730;9.136;2023-03-03T00:31:51;52.10;;;30.97;;
31112;SDS011;17763;48.730;9.136;2023-03-03T00:36:42;51.63;;;28.35;;
31112;SDS011;17763;48.730;9.136;2023-03-03T00:39:23;56.67;;;31.42;;
31112;SDS011;17763;48.730;9.136;2023-03-03T00:42:01;50.17;;;29.15;;
31112;SDS011;17763;48.730;9.136;2023-03-03T00:44:47;49.58;;;30.02;;
31112;SDS011;17763;48.730;9.136;2023-03-03T00:50:15;50.25;;;29.80;;
31112;SDS011;17763;48.730;9.136;2023-03-03T00:53:00;48.50;;;28.75;;
31112;SDS011;17763;48.730;9.136;2023-03-03T00:55:30;52.25;;;30.27;;
31112;SDS011;17763;48.730;9.136;2023-03-03T00:57:59;56.67;;;29.75;;
31112;SDS011;17763;48.730;9.136;2023-03-03T01:00:25;51.40;;;28.40;;
31112;SDS011;17763;48.730;9.136;2023-03-03T01:02:50;50.63;;;28.15;;
31112;SDS011;17763;48.730;9.136;2023-03-03T01:05:17;51.95;;;29.25;;
31112;SDS011;17763;48.730;9.136;2023-03-03T01:07:43;52.25;;;30.30;;
31112;SDS011;17763;48.730;9.136;2023-03-03T01:10:09;45.88;;;27.85;;
31112;SDS011;17763;48.730;9.136;2023-03-03T01:12:36;51.85;;;27.77;;
31112;SDS011;17763;48.730;9.136;2023-03-03T01:15:08;49.08;;;28.00;;
31112;SDS011;17763;48.730;9.136;2023-03-03T01:17:35;50.73;;;29.17;;
31112;SDS011;17763;48.730;9.136;2023-03-03T01:20:01;46.67;;;28.00;;
31112;SDS011;17763;48.730;9.136;2023-03-03T01:22:27;44.47;;;27.88;;
31112;SDS011;17763;48.730;9.136;2023-03-03T01:24:53;50.03;;;28.10;;
31112;SDS011;17763;48.730;9.136;2023-03-03T01:27:21;53.28;;;29.48;;
31112;SDS011;17763;48.730;9.136;2023-03-03T01:29:47;49.35;;;29.75;;
31112;SDS011;17763;48.730;9.136;2023-03-03T01:32:12;49.95;;;30.27;;
31112;SDS011;17763;48.730;9.136;2023-03-03T01:34:38;47.95;;;27.48;;
31112;SDS011;17763;48.730;9.136;2023-03-03T01:37:03;50.50;;;28.58;;
31112;SDS011;17763;48.730;9.136;2023-03-03T01:39:29;48.75;;;29.80;;
31112;SDS011;17763;48.730;9.136;2023-03-03T01:41:55;51.40;;;29.27;;
31112;SDS011;17763;48.730;9.136;2023-03-03T01:44:20;49.88;;;28.15;;
31112;SDS011;17763;48.730;9.136;2023-03-03T01:54:58;51.53;;;29.15;;
31112;SDS011;17763;48.730;9.136;2023-03-03T01:57:35;49.88;;;29.25;;
31112;SDS011;17763;48.730;9.136;2023-03-03T02:00:05;53.15;;;29.35;;
31112;SDS011;17763;48.730;9.136;2023-03-03T02:02:31;51.33;;;29.33;;
31112;SDS011;17763;48.730;9.136;2023-03-03T02:04:58;52.97;;;29.50;;
31112;SDS011;17763;48.730;9.136;2023-03-03T02:07:24;49.97;;;27.38;;
31112;SDS011;17763;48.730;9.136;2023-03-03T02:12:54;47.88;;;28.65;;
31112;SDS011;17763;48.730;9.136;2023-03-03T02:15:24;48.25;;;28.85;;
31112;SDS011;17763;48.730;9.136;2023-03-03T02:17:56;48.20;;;27.38;;
31112;SDS011;17763;48.730;9.136;2023-03-03T02:21:26;51.90;;;28.67;;
31112;SDS011;17763;48.730;9.136;2023-03-03T02:23:41;47.15;;;27.08;;
31112;SDS011;17763;48.730;9.136;2023-03-03T02:26:15;49.15;;;29.17;;
31112;SDS011;17763;48.730;9.136;2023-03-03T02:28:44;50.00;;;29.63;;
31112;SDS011;17763;48.730;9.136;2023-03-03T02:31:14;51.67;;;30.10;;
31112;SDS011;17763;48.730;9.136;2023-03-03T02:33:43;54.15;;;31.02;;
31112;SDS011;17763;48.730;9.136;2023-03-03T02:36:16;49.00;;;29.90;;
31112;SDS011;17763;48.730;9.136;2023-03-03T02:38:48;49.80;;;28.80;;
31112;SDS011;17763;48.730;9.136;2023-03-03T02:44:10;47.20;;;27.90;;
31112;SDS011;17763;48.730;9.136;2023-03-03T02:46:41;51.63;;;28.17;;
31112;SDS011;17763;48.730;9.136;2023-03-03T02:51:34;44.28;;;25.58;;
31112;SDS011;17763;48.730;9.136;2023-03-03T02:54:01;48.20;;;27.73;;
31112;SDS011;17763;48.730;9.136;2023-03-03T02:56:27;55.25;;;29.98;;
31112;SDS011;17763;48.730;9.136;2023-03-03T02:58:53;51.25;;;30.17;;
31112;SDS011;17763;48.730;9.136;2023-03-03T03:01:19;50.63;;;29.50;;
31112;SDS011;17763;48.730;9.136;2023-03-03T03:03:45;51.20;;;27.95;;
31112;SDS011;17763;48.730;9.136;2023-03-03T03:06:11;51.53;;;29.30;;
31112;SDS011;17763;48.730;9.136;2023-03-03T03:08:37;59.40;;;30.67;;
31112;SDS011;17763;48.730;9.136;2023-03-03T03:11:03;54.20;;;31.20;;
31112;SDS011;17763;48.730;9.136;2023-03-03T03:13:31;47.88;;;28.48;;
31112;SDS011;17763;48.730;9.136;2023-03-03T03:15:58;49.33;;;28.05;;
31112;SDS011;17763;48.730;9.136;2023-03-03T03:18:27;52.83;;;30.10;;
31112;SDS011;17763;48.730;9.136;2023-03-03T03:20:53;53.83;;;29.70;;
31112;SDS011;17763;48.730;9.136;2023-03-03T03:23:18;67.20;;;33.90;;
31112;SDS011;17763;48.730;9.136;2023-03-03T03:25:46;56.22;;;31.08;;
31112;SDS011;17763;48.730;9.136;2023-03-03T03:28:13;55.03;;;31.90;;
31112;SDS011;17763;48.730;9.136;2023-03-03T03:30:39;51.78;;;30.83;;
31112;SDS011;17763;48.730;9.136;2023-03-03T03:33:06;57.03;;;31.95;;
31112;SDS011;17763;48.730;9.136;2023-03-03T03:35:32;55.55;;;31.92;;
31112;SDS011;17763;48.730;9.136;2023-03-03T03:37:59;58.17;;;31.75;;
31112;SDS011;17763;48.730;9.136;2023-03-03T03:40:24;60.25;;;30.95;;
31112;SDS011;17763;48.730;9.136;2023-03-03T03:42:53;54.10;;;31.52;;
31112;SDS011;17763;48.730;9.136;2023-03-03T03:45:19;58.03;;;32.78;;
31112;SDS011;17763;48.730;9.136;2023-03-03T03:47:45;58.65;;;32.30;;
31112;SDS011;17763;48.730;9.136;2023-03-03T03:50:11;56.78;;;33.60;;
31112;SDS011;17763;48.730;9.136;2023-03-03T03:52:37;61.10;;;33.63;;
31112;SDS011;17763;48.730;9.136;2023-03-03T03:55:07;58.15;;;30.52;;
31112;SDS011;17763;48.730;9.136;2023-03-03T03:57:33;55.90;;;31.23;;
31112;SDS011;17763;48.730;9.136;2023-03-03T03:59:59;60.15;;;32.55;;
31112;SDS011;17763;48.730;9.136;2023-03-03T04:02:24;59.17;;;33.83;;
31112;SDS011;17763;48.730;9.136;2023-03-03T04:04:50;66.60;;;33.78;;
31112;SDS011;17763;48.730;9.136;2023-03-03T04:07:16;56.28;;;32.72;;
31112;SDS011;17763;48.730;9.136;2023-03-03T04:09:41;59.75;;;32.30;;
31112;SDS011;17763;48.730;9.136;2023-03-03T04:12:07;60.28;;;32.58;;
31112;SDS011;17763;48.730;9.136;2023-03-03T04:14:32;56.70;;;32.85;;
31112;SDS011;17763;48.730;9.136;2023-03-03T04:17:01;57.97;;;30.63;;
31112;SDS011;17763;48.730;9.136;2023-03-03T04:19:27;57.58;;;32.42;;
31112;SDS011;17763;48.730;9.136;2023-03-03T04:21:52;62.72;;;33.40;;
31112;SDS011;17763;48.730;9.136;2023-03-03T04:24:18;63.42;;;33.22;;
31112;SDS011;17763;48.730;9.136;2023-03-03T04:26:44;66.03;;;34.03;;
31112;SDS011;17763;48.730;9.136;2023-03-03T04:29:12;56.15;;;31.88;;
31112;SDS011;17763;48.730;9.136;2023-03-03T04:31:40;60.22;;;32.33;;
31112;SDS011;17763;48.730;9.136;2023-03-03T04:34:05;61.65;;;32.83;;
31112;SDS011;17763;48.730;9.136;2023-03-03T04:36:31;62.42;;;34.17;;
31112;SDS011;17763;48.730;9.136;2023-03-03T04:38:59;66.20;;;35.67;;
31112;SDS011;17763;48.730;9.136;2023-03-03T04:41:25;65.53;;;34.97;;
31112;SDS011;17763;48.730;9.136;2023-03-03T04:43:50;62.30;;;33.78;;
31112;SDS011;17763;48.730;9.136;2023-03-03T04:46:16;61.28;;;33.08;;
31112;SDS011;17763;48.730;9.136;2023-03-03T04:48:41;63.20;;;34.67;;
31112;SDS011;17763;48.730;9.136;2023-03-03T04:51:07;64.38;;;33.78;;
31112;SDS011;17763;48.730;9.136;2023-03-03T04:53:35;63.30;;;35.03;;
31112;SDS011;17763;48.730;9.136;2023-03-03T04:56:02;62.92;;;35.33;;
31112;SDS011;17763;48.730;9.136;2023-03-03T04:58:29;60.85;;;33.25;;
31112;SDS011;17763;48.730;9.136;2023-03-03T05:00:55;63.95;;;36.15;;
31112;SDS011;17763;48.730;9.136;2023-03-03T05:03:21;64.03;;;34.65;;
31112;SDS011;17763;48.730;9.136;2023-03-03T05:05:50;70.25;;;37.00;;
31112;SDS011;17763;48.730;9.136;2023-03-03T05:08:18;69.20;;;37.13;;
31112;SDS011;17763;48.730;9.136;2023-03-03T05:10:44;72.13;;;37.03;;
31112;SDS011;17763;48.730;9.136;2023-03-03T05:13:12;75.18;;;37.15;;
31112;SDS011;17763;48.730;9.136;2023-03-03T05:15:40;70.03;;;35.35;;
31112;SDS011;17763;48.730;9.136;2023-03-03T05:18:07;64.50;;;35.55;;
31112;SDS011;17763;48.730;9.136;2023-03-03T05:20:33;69.07;;;35.42;;
31112;SDS011;17763;48.730;9.136;2023-03-03T05:22:59;64.85;;;33.70;;
31112;SDS011;17763;48.730;9.136;2023-03-03T05:25:27;59.60;;;34.20;;
31112;SDS011;17763;48.730;9.136;2023-03-03T05:27:52;69.18;;;35.65;;
31112;SDS011;17763;48.730;9.136;2023-03-03T05:30:18;61.45;;;33.63;;
31112;SDS011;17763;48.730;9.136;2023-03-03T05:32:44;70.97;;;35.38;;
31112;SDS011;17763;48.730;9.136;2023-03-03T05:35:12;66.88;;;35.00;;
31112;SDS011;17763;48.730;9.136;2023-03-03T05:37:38;71.75;;;35.90;;
31112;SDS011;17763;48.730;9.136;2023-03-03T05:40:06;71.22;;;36.53;;
31112;SDS011;17763;48.730;9.136;2023-03-03T05:42:33;73.63;;;38.42;;
31112;SDS011;17763;48.730;9.136;2023-03-03T05:45:00;66.20;;;36.40;;
31112;SDS011;17763;48.730;9.136;2023-03-03T05:47:26;70.68;;;35.63;;
31112;SDS011;17763;48.730;9.136;2023-03-03T05:49:52;71.95;;;37.20;;
31112;SDS011;17763;48.730;9.136;2023-03-03T05:52:17;72.63;;;34.95;;
31112;SDS011;17763;48.730;9.136;2023-03-03T05:54:43;72.32;;;36.05;;
31112;SDS011;17763;48.730;9.136;2023-03-03T05:57:11;75.43;;;39.20;;
31112;SDS011;17763;48.730;9.136;2023-03-03T05:59:36;66.93;;;36.25;;
31112;SDS011;17763;48.730;9.136;2023-03-03T06:02:02;67.07;;;34.45;;
31112;SDS011;17763;48.730;9.136;2023-03-03T06:04:27;64.30;;;36.05;;
31112;SDS011;17763;48.730;9.136;2023-03-03T06:06:55;74.32;;;37.80;;
31112;SDS011;17763;48.730;9.136;2023-03-03T06:09:21;74.78;;;38.53;;
31112;SDS011;17763;48.730;9.136;2023-03-03T06:11:47;68.40;;;34.83;;
31112;SDS011;17763;48.730;9.136;2023-03-03T06:14:16;67.53;;;35.80;;
31112;SDS011;17763;48.730;9.136;2023-03-03T06:16:42;69.82;;;36.83;;
31112;SDS011;17763;48.730;9.136;2023-03-03T06:19:13;68.30;;;36.13;;
31112;SDS011;17763;48.730;9.136;2023-03-03T06:21:38;73.63;;;37.42;;
31112;SDS011;17763;48.730;9.136;2023-03-03T06:24:05;66.00;;;35.03;;
31112;SDS011;17763;48.730;9.136;2023-03-03T06:26:33;69.35;;;36.33;;
31112;SDS011;17763;48.730;9.136;2023-03-03T06:28:59;72.78;;;36.83;;
31112;SDS011;17763;48.730;9.136;2023-03-03T06:31:25;68.45;;;35.40;;
31112;SDS011;17763;48.730;9.136;2023-03-03T06:34:00;72.75;;;34.95;;
31112;SDS011;17763;48.730;9.136;2023-03-03T06:36:29;62.40;;;35.13;;
31112;SDS011;17763;48.730;9.136;2023-03-03T06:38:55;68.68;;;35.00;;
31112;SDS011;17763;48.730;9.136;2023-03-03T06:41:23;68.75;;;34.67;;
31112;SDS011;17763;48.730;9.136;2023-03-03T06:43:49;72.78;;;35.35;;
31112;SDS011;17763;48.730;9.136;2023-03-03T06:46:22;67.78;;;35.67;;
31112;SDS011;17763;48.730;9.136;2023-03-03T06:48:48;70.55;;;35.80;;
31112;SDS011;17763;48.730;9.136;2023-03-03T06:51:24;68.70;;;33.88;;
31112;SDS011;17763;48.730;9.136;2023-03-03T06:53:53;65.65;;;32.78;;
31112;SDS011;17763;48.730;9.136;2023-03-03T06:56:20;63.05;;;33.85;;
31112;SDS011;17763;48.730;9.136;2023-03-03T06:58:54;66.25;;;34.50;;
31112;SDS011;17763;48.730;9.136;2023-03-03T07:01:22;62.10;;;31.58;;
31112;SDS011;17763;48.730;9.136;2023-03-03T07:03:48;61.85;;;33.25;;
31112;SDS011;17763;48.730;9.136;2023-03-03T07:06:17;61.58;;;33.33;;
31112;SDS011;17763;48.730;9.136;2023-03-03T07:08:49;63.47;;;33.85;;
31112;SDS011;17763;48.730;9.136;2023-03-03T07:11:21;71.65;;;35.22;;
31112;SDS011;17763;48.730;9.136;2023-03-03T07:13:49;65.53;;;33.28;;
31112;SDS011;17763;48.730;9.136;2023-03-03T07:16:24;66.40;;;34.35;;
31112;SDS011;17763;48.730;9.136;2023-03-03T07:23:57;68.07;;;34.05;;
31112;SDS011;17763;48.730;9.136;2023-03-03T07:26:26;66.30;;;33.67;;
31112;SDS011;17763;48.730;9.136;2023-03-03T07:28:57;64.30;;;33.85;;
31112;SDS011;17763;48.730;9.136;2023-03-03T07:31:59;67.05;;;34.75;;
31112;SDS011;17763;48.730;9.136;2023-03-03T07:37:03;62.08;;;33.13;;
31112;SDS011;17763;48.730;9.136;2023-03-03T07:39:37;64.07;;;34.03;;
31112;SDS011;17763;48.730;9.136;2023-03-03T07:45:00;66.28;;;32.50;;
31112;SDS011;17763;48.730;9.136;2023-03-03T07:47:30;57.22;;;31.10;;
31112;SDS011;17763;48.730;9.136;2023-03-03T07:50:00;56.13;;;29.73;;
31112;SDS011;17763;48.730;9.136;2023-03-03T07:52:42;46.95;;;27.35;;
31112;SDS011;17763;48.730;9.136;2023-03-03T07:55:32;51.50;;;28.88;;
31112;SDS011;17763;48.730;9.136;2023-03-03T07:58:22;49.60;;;27.27;;
31112;SDS011;17763;48.730;9.136;2023-03-03T08:03:44;53.72;;;28.70;;
31112;SDS011;17763;48.730;9.136;2023-03-03T08:14:34;49.58;;;29.13;;
31112;SDS011;17763;48.730;9.136;2023-03-03T08:17:02;51.67;;;27.10;;
31112;SDS011;17763;48.730;9.136;2023-03-03T08:19:40;51.60;;;28.33;;
31112;SDS011;17763;48.730;9.136;2023-03-03T08:24:56;56.92;;;29.85;;
31112;SDS011;17763;48.730;9.136;2023-03-03T08:27:25;50.00;;;28.83;;
31112;SDS011;17763;48.730;9.136;2023-03-03T08:29:50;52.28;;;29.65;;
31112;SDS011;17763;48.730;9.136;2023-03-03T08:32:16;48.28;;;27.92;;
31112;SDS011;17763;48.730;9.136;2023-03-03T08:34:42;47.08;;;27.98;;
31112;SDS011;17763;48.730;9.136;2023-03-03T08:37:07;47.50;;;27.55;;
31112;SDS011;17763;48.730;9.136;2023-03-03T08:39:33;49.78;;;27.90;;
31112;SDS011;17763;48.730;9.136;2023-03-03T08:42:02;49.55;;;28.30;;
31112;SDS011;17763;48.730;9.136;2023-03-03T08:44:27;51.15;;;28.58;;
31112;SDS011;17763;48.730;9.136;2023-03-03T08:46:53;50.25;;;28.92;;
31112;SDS011;17763;48.730;9.136;2023-03-03T08:49:19;48.88;;;27.35;;
31112;SDS011;17763;48.730;9.136;2023-03-03T08:51:45;52.03;;;28.92;;
31112;SDS011;17763;48.730;9.136;2023-03-03T08:54:11;53.47;;;27.50;;
31112;SDS011;17763;48.730;9.136;2023-03-03T08:56:37;49.03;;;28.92;;
31112;SDS011;17763;48.730;9.136;2023-03-03T08:59:02;51.35;;;28.85;;
31112;SDS011;17763;48.730;9.136;2023-03-03T09:01:29;47.88;;;28.40;;
31112;SDS011;17763;48.730;9.136;2023-03-03T09:03:55;50.72;;;28.45;;
31112;SDS011;17763;48.730;9.136;2023-03-03T09:06:21;53.35;;;30.08;;
31112;SDS011;17763;48.730;9.136;2023-03-03T09:08:46;49.47;;;28.17;;
31112;SDS011;17763;48.730;9.136;2023-03-03T09:11:12;52.30;;;28.67;;
31112;SDS011;17763;48.730;9.136;2023-03-03T09:13:45;52.22;;;30.65;;
31112;SDS011;17763;48.730;9.136;2023-03-03T09:18:44;54.13;;;30.10;;
31112;SDS011;17763;48.730;9.136;2023-03-03T09:21:24;55.00;;;30.05;;
31112;SDS011;17763;48.730;9.136;2023-03-03T09:23:53;51.03;;;29.75;;
31112;SDS011;17763;48.730;9.136;2023-03-03T09:26:24;54.65;;;30.95;;
31112;SDS011;17763;48.730;9.136;2023-03-03T09:29:39;54.70;;;30.35;;
31112;SDS011;17763;48.730;9.136;2023-03-03T09:31:59;54.00;;;30.30;;
31112;SDS011;17763;48.730;9.136;2023-03-03T09:37:02;54.17;;;30.42;;
31112;SDS011;17763;48.730;9.136;2023-03-03T09:39:47;54.08;;;29.98;;
31112;SDS011;17763;48.730;9.136;2023-03-03T09:45:07;56.38;;;30.92;;
31112;SDS011;17763;48.730;9.136;2023-03-03T09:47:51;54.83;;;30.38;;
31112;SDS011;17763;48.730;9.136;2023-03-03T09:55:52;47.33;;;28.20;;
31112;SDS011;17763;48.730;9.136;2023-03-03T09:58:29;51.97;;;28.75;;
31112;SDS011;17763;48.730;9.136;2023-03-03T10:06:57;48.05;;;29.30;;
31112;SDS011;17763;48.730;9.136;2023-03-03T10:25:52;46.33;;;27.27;;
31112;SDS011;17763;48.730;9.136;2023-03-03T10:44:28;44.63;;;28.38;;
31112;SDS011;17763;48.730;9.136;2023-03-03T10:55:33;44.58;;;26.75;;
31112;SDS011;17763;48.730;9.136;2023-03-03T11:06:17;47.20;;;28.23;;
31112;SDS011;17763;48.730;9.136;2023-03-03T11:14:12;51.08;;;27.67;;
31112;SDS011;17763;48.730;9.136;2023-03-03T11:32:25;43.95;;;27.33;;
31112;SDS011;17763;48.730;9.136;2023-03-03T11:35:18;49.38;;;29.15;;
31112;SDS011;17763;48.730;9.136;2023-03-03T11:37:56;44.80;;;27.95;;
31112;SDS011;17763;48.730;9.136;2023-03-03T11:40:53;45.63;;;28.23;;
31112;SDS011;17763;48.730;9.136;2023-03-03T11:45:58;53.97;;;29.85;;
31112;SDS011;17763;48.730;9.136;2023-03-03T11:51:34;48.35;;;29.15;;
31112;SDS011;17763;48.730;9.136;2023-03-03T12:04:46;43.67;;;28.95;;
31112;SDS011;17763;48.730;9.136;2023-03-03T12:10:18;45.20;;;27.80;;
31112;SDS011;17763;48.730;9.136;2023-03-03T12:15:32;44.45;;;27.90;;
31112;SDS011;17763;48.730;9.136;2023-03-03T12:18:20;48.45;;;28.52;;
31112;SDS011;17763;48.730;9.136;2023-03-03T12:35:10;45.47;;;28.02;;
31112;SDS011;17763;48.730;9.136;2023-03-03T12:38:08;44.00;;;27.70;;
31112;SDS011;17763;48.730;9.136;2023-03-03T12:40:44;48.38;;;29.23;;
31112;SDS011;17763;48.730;9.136;2023-03-03T12:48:44;43.53;;;27.17;;
31112;SDS011;17763;48.730;9.136;2023-03-03T12:51:16;46.00;;;27.40;;
31112;SDS011;17763;48.730;9.136;2023-03-03T12:54:13;46.75;;;27.25;;
31112;SDS011;17763;48.730;9.136;2023-03-03T13:08:27;43.65;;;27.35;;
31112;SDS011;17763;48.730;9.136;2023-03-03T13:16:27;42.13;;;26.35;;
31112;SDS011;17763;48.730;9.136;2023-03-03T13:19:01;44.22;;;26.88;;
31112;SDS011;17763;48.730;9.136;2023-03-03T13:21:58;39.92;;;26.60;;
31112;SDS011;17763;48.730;9.136;2023-03-03T13:24:42;41.25;;;25.80;;
31112;SDS011;17763;48.730;9.136;2023-03-03T13:29:41;40.45;;;26.10;;
31112;SDS011;17763;48.730;9.136;2023-03-03T13:32:16;44.03;;;26.40;;
31112;SDS011;17763;48.730;9.136;2023-03-03T13:37:37;45.80;;;26.70;;
31112;SDS011;17763;48.730;9.136;2023-03-03T13:45:26;41.38;;;25.27;;
31112;SDS011;17763;48.730;9.136;2023-03-03T13:48:02;47.35;;;26.88;;
31112;SDS011;17763;48.730;9.136;2023-03-03T14:07:41;40.90;;;26.25;;
31112;SDS011;17763;48.730;9.136;2023-03-03T14:10:31;40.28;;;25.02;;
31112;SDS011;17763;48.730;9.136;2023-03-03T14:13:08;42.67;;;26.80;;
31112;SDS011;17763;48.730;9.136;2023-03-03T14:21:25;46.83;;;27.70;;
31112;SDS011;17763;48.730;9.136;2023-03-03T14:31:51;35.70;;;24.85;;
31112;SDS011;17763;48.730;9.136;2023-03-03T14:34:35;44.03;;;26.85;;
31112;SDS011;17763;48.730;9.136;2023-03-03T14:39:49;44.15;;;26.33;;
31112;SDS011;17763;48.730;9.136;2023-03-03T14:42:31;39.90;;;26.13;;
31112;SDS011;17763;48.730;9.136;2023-03-03T14:45:01;41.63;;;27.33;;
31112;SDS011;17763;48.730;9.136;2023-03-03T14:47:39;46.83;;;27.42;;
31112;SDS011;17763;48.730;9.136;2023-03-03T14:55:38;45.15;;;27.27;;
31112;SDS011;17763;48.730;9.136;2023-03-03T14:58:39;46.17;;;27.92;;
31112;SDS011;17763;48.730;9.136;2023-03-03T15:01:08;41.60;;;27.40;;
31112;SDS011;17763;48.730;9.136;2023-03-03T15:12:20;47.17;;;26.73;;
31112;SDS011;17763;48.730;9.136;2023-03-03T15:14:47;41.47;;;26.45;;
31112;SDS011;17763;48.730;9.136;2023-03-03T15:17:25;42.55;;;25.88;;
31112;SDS011;17763;48.730;9.136;2023-03-03T15:20:07;45.17;;;27.83;;
31112;SDS011;17763;48.730;9.136;2023-03-03T15:31:00;45.60;;;27.90;;
31112;SDS011;17763;48.730;9.136;2023-03-03T15:36:38;46.55;;;27.83;;
31112;SDS011;17763;48.730;9.136;2023-03-03T15:47:41;42.92;;;26.10;;
31112;SDS011;17763;48.730;9.136;2023-03-03T15:56:19;45.33;;;27.13;;
31112;SDS011;17763;48.730;9.136;2023-03-03T16:02:23;39.78;;;27.02;;
31112;SDS011;17763;48.730;9.136;2023-03-03T16:05:16;51.00;;;28.23;;
31112;SDS011;17763;48.730;9.136;2023-03-03T16:10:50;46.83;;;27.85;;
31112;SDS011;17763;48.730;9.136;2023-03-03T16:19:03;44.10;;;27.65;;
31112;SDS011;17763;48.730;9.136;2023-03-03T16:30:00;48.60;;;28.50;;
31112;SDS011;17763;48.730;9.136;2023-03-03T16:36:01;48.05;;;29.02;;
31112;SDS011;17763;48.730;9.136;2023-03-03T16:39:11;47.58;;;29.00;;
31112;SDS011;17763;48.730;9.136;2023-03-03T16:46:40;50.20;;;28.10;;
31112;SDS011;17763;48.730;9.136;2023-03-03T16:49:32;50.38;;;28.38;;
31112;SDS011;17763;48.730;9.136;2023-03-03T17:33:20;41.60;;;26.42;;
31112;SDS011;17763;48.730;9.136;2023-03-03T17:41:45;46.10;;;27.70;;
31112;SDS011;17763;48.730;9.136;2023-03-03T17:44:59;51.40;;;30.23;;
31112;SDS011;17763;48.730;9.136;2023-03-03T17:47:44;49.08;;;30.08;;
31112;SDS011;17763;48.730;9.136;2023-03-03T17:50:38;48.50;;;30.02;;
31112;SDS011;17763;48.730;9.136;2023-03-03T17:53:32;57.35;;;30.45;;
31112;SDS011;17763;48.730;9.136;2023-03-03T18:04:33;45.92;;;28.00;;
31112;SDS011;17763;48.730;9.136;2023-03-03T18:13:08;55.78;;;29.30;;
31112;SDS011;17763;48.730;9.136;2023-03-03T18:21:15;50.50;;;27.90;;
31112;SDS011;17763;48.730;9.136;2023-03-03T18:23:48;51.28;;;29.77;;
31112;SDS011;17763;48.730;9.136;2023-03-03T18:31:45;48.55;;;30.05;;
31112;SDS011;17763;48.730;9.136;2023-03-03T18:36:58;44.65;;;28.38;;
31112;SDS011;17763;48.730;9.136;2023-03-03T18:40:18;51.63;;;29.23;;
31112;SDS011;17763;48.730;9.136;2023-03-03T18:53:07;54.00;;;31.38;;
31112;SDS011;17763;48.730;9.136;2023-03-03T18:55:45;53.03;;;30.40;;
31112;SDS011;17763;48.730;9.136;2023-03-03T19:00:44;54.85;;;32.00;;
31112;SDS011;17763;48.730;9.136;2023-03-03T19:03:28;50.95;;;30.25;;
31112;SDS011;17763;48.730;9.136;2023-03-03T19:06:01;52.05;;;30.98;;
31112;SDS011;17763;48.730;9.136;2023-03-03T19:08:41;53.90;;;30.70;;
31112;SDS011;17763;48.730;9.136;2023-03-03T19:11:32;54.65;;;29.88;;
31112;SDS011;17763;48.730;9.136;2023-03-03T19:25:23;48.83;;;28.77;;
31112;SDS011;17763;48.730;9.136;2023-03-03T19:27:55;52.67;;;29.35;;
31112;SDS011;17763;48.730;9.136;2023-03-03T19:39:19;48.90;;;28.95;;
31112;SDS011;17763;48.730;9.136;2023-03-03T19:42:13;55.30;;;31.92;;
31112;SDS011;17763;48.730;9.136;2023-03-03T19:48:14;54.92;;;31.90;;
31112;SDS011;17763;48.730;9.136;2023-03-03T19:50:47;54.92;;;31.75;;
31112;SDS011;17763;48.730;9.136;2023-03-03T19:53:37;55.28;;;30.70;;
31112;SDS011;17763;48.730;9.136;2023-03-03T19:59:31;57.22;;;31.05;;
31112;SDS011;17763;48.730;9.136;2023-03-03T20:02:12;56.63;;;30.55;;
31112;SDS011;17763;48.730;9.136;2023-03-03T20:05:20;50.03;;;29.52;;
31112;SDS011;17763;48.730;9.136;2023-03-03T20:07:57;52.65;;;30.27;;
31112;SDS011;17763;48.730;9.136;2023-03-03T20:10:37;49.55;;;29.52;;
31112;SDS011;17763;48.730;9.136;2023-03-03T20:16:26;55.17;;;29.10;;
31112;SDS011;17763;48.730;9.136;2023-03-03T20:27:34;56.83;;;32.30;;
31112;SDS011;17763;48.730;9.136;2023-03-03T20:30:23;56.67;;;31.40;;
31112;SDS011;17763;48.730;9.136;2023-03-03T20:35:36;55.30;;;31.52;;
31112;SDS011;17763;48.730;9.136;2023-03-03T20:38:22;52.65;;;30.40;;
31112;SDS011;17763;48.730;9.136;2023-03-03T20:49:08;50.58;;;29.02;;
31112;SDS011;17763;48.730;9.136;2023-03-03T21:07:33;54.00;;;27.55;;
31112;SDS011;17763;48.730;9.136;2023-03-03T21:10:17;51.25;;;28.45;;
31112;SDS011;17763;48.730;9.136;2023-03-03T21:12:51;49.97;;;28.17;;
31112;SDS011;17763;48.730;9.136;2023-03-03T21:15:22;47.60;;;26.77;;
31112;SDS011;17763;48.730;9.136;2023-03-03T21:17:54;50.63;;;26.70;;
31112;SDS011;17763;48.730;9.136;2023-03-03T21:22:50;48.28;;;27.33;;
31112;SDS011;17763;48.730;9.136;2023-03-03T21:30:58;51.70;;;28.02;;
31112;SDS011;17763;48.730;9.136;2023-03-03T21:38:50;48.70;;;26.60;;
31112;SDS011;17763;48.730;9.136;2023-03-03T21:41:17;49.17;;;27.30;;
31112;SDS011;17763;48.730;9.136;2023-03-03T21:43:45;49.50;;;27.08;;
31112;SDS011;17763;48.730;9.136;2023-03-03T21:46:12;51.45;;;26.13;;
31112;SDS011;17763;48.730;9.136;2023-03-03T21:48:41;46.80;;;26.90;;
31112;SDS011;17763;48.730;9.136;2023-03-03T21:51:08;54.80;;;28.58;;
31112;SDS011;17763;48.730;9.136;2023-03-03T21:53:35;51.75;;;26.73;;
31112;SDS011;17763;48.730;9.136;2023-03-03T21:56:02;46.72;;;25.90;;
31112;SDS011;17763;48.730;9.136;2023-03-03T21:58:28;49.55;;;28.27;;
31112;SDS011;17763;48.730;9.136;2023-03-03T22:00:54;53.63;;;28.33;;
31112;SDS011;17763;48.730;9.136;2023-03-03T22:03:20;43.75;;;25.67;;
31112;SDS011;17763;48.730;9.136;2023-03-03T22:05:48;50.10;;;27.63;;
31112;SDS011;17763;48.730;9.136;2023-03-03T22:08:14;52.40;;;27.65;;
31112;SDS011;17763;48.730;9.136;2023-03-03T22:10:46;51.63;;;29.15;;
31112;SDS011;17763;48.730;9.136;2023-03-03T22:13:16;47.90;;;27.02;;
31112;SDS011;17763;48.730;9.136;2023-03-03T22:15:44;53.78;;;28.27;;
31112;SDS011;17763;48.730;9.136;2023-03-03T22:18:13;45.92;;;26.33;;
31112;SDS011;17763;48.730;9.136;2023-03-03T22:20:44;50.30;;;28.23;;
31112;SDS011;17763;48.730;9.136;2023-03-03T22:23:14;51.85;;;28.27;;
31112;SDS011;17763;48.730;9.136;2023-03-03T22:25:40;50.13;;;28.88;;
31112;SDS011;17763;48.730;9.136;2023-03-03T22:28:06;48.95;;;27.98;;
31112;SDS011;17763;48.730;9.136;2023-03-03T22:30:32;52.78;;;28.50;;
31112;SDS011;17763;48.730;9.136;2023-03-03T22:33:00;53.65;;;29.88;;
31112;SDS011;17763;48.730;9.136;2023-03-03T22:35:26;51.85;;;28.77;;
31112;SDS011;17763;48.730;9.136;2023-03-03T22:37:51;49.70;;;27.73;;
31112;SDS011;17763;48.730;9.136;2023-03-03T22:40:17;54.25;;;31.27;;
31112;SDS011;17763;48.730;9.136;2023-03-03T22:42:43;52.13;;;29.27;;
31112;SDS011;17763;48.730;9.136;2023-03-03T22:45:09;51.35;;;28.30;;
31112;SDS011;17763;48.730;9.136;2023-03-03T22:47:35;47.58;;;27.20;;
31112;SDS011;17763;48.730;9.136;2023-03-03T22:50:01;49.55;;;27.90;;